sensor_id;sensor_type;location;lat;lon;timestamp;P1;durP1;ratioP1;P2;durP2;ratioP2
44328;SDS011;30039;51.462;6.892;2023-08-06T00:02:39;5.07;;;2.40;;
44328;SDS011;30039;51.462;6.892;2023-08-06T00:05:24;4.53;;;2.33;;
44328;SDS011;30039;51.462;6.892;2023-08-06T00:08:10;4.95;;;2.28;;
44328;SDS011;30039;51.462;6.892;2023-08-06T00:10:56;5.40;;;2.53;;
44328;SDS011;30039;51.462;6.892;2023-08-06T00:13:41;7.13;;;2.47;;
44328;SDS011;30039;51.462;6.892;2023-08-06T00:16:27;3.08;;;2.10;;
44328;SDS011;30039;51.462;6.892;2023-08-06T00:19:12;3.28;;;2.10;;
44328;SDS011;30039;51.462;6.892;2023-08-06T00:21:58;8.57;;;3.17;;
44328;SDS011;30039;51.462;6.892;2023-08-06T00:24:43;3.80;;;2.47;;
44328;SDS011;30039;51.462;6.892;2023-08-06T00:27:29;3.38;;;2.33;;
44328;SDS011;30039;51.462;6.892;2023-08-06T00:30:15;4.22;;;2.20;;
44328;SDS011;30039;51.462;6.892;2023-08-06T00:33:00;3.40;;;2.10;;
44328;SDS011;30039;51.462;6.892;2023-08-06T00:35:46;2.65;;;1.90;;
44328;SDS011;30039;51.462;6.892;2023-08-06T00:38:32;3.25;;;1.80;;
44328;SDS011;30039;51.462;6.892;2023-08-06T00:41:17;4.00;;;2.05;;
44328;SDS011;30039;51.462;6.892;2023-08-06T00:44:03;7.15;;;2.30;;
44328;SDS011;30039;51.462;6.892;2023-08-06T00:46:49;3.50;;;1.95;;
44328;SDS011;30039;51.462;6.892;2023-08-06T00:49:35;2.95;;;1.83;;
44328;SDS011;30039;51.462;6.892;2023-08-06T00:52:21;3.20;;;2.03;;
44328;SDS011;30039;51.462;6.892;2023-08-06T00:55:07;3.10;;;2.10;;
44328;SDS011;30039;51.462;6.892;2023-08-06T00:57:53;4.32;;;2.25;;
44328;SDS011;30039;51.462;6.892;2023-08-06T01:00:41;4.82;;;1.98;;
44328;SDS011;30039;51.462;6.892;2023-08-06T01:03:27;3.42;;;2.10;;
44328;SDS011;30039;51.462;6.892;2023-08-06T01:06:13;3.38;;;2.08;;
44328;SDS011;30039;51.462;6.892;2023-08-06T01:09:01;3.20;;;1.90;;
44328;SDS011;30039;51.462;6.892;2023-08-06T01:14:53;3.05;;;1.98;;
44328;SDS011;30039;51.462;6.892;2023-08-06T01:17:39;4.10;;;1.90;;
44328;SDS011;30039;51.462;6.892;2023-08-06T01:20:28;3.45;;;2.10;;
44328;SDS011;30039;51.462;6.892;2023-08-06T01:23:14;4.43;;;1.83;;
44328;SDS011;30039;51.462;6.892;2023-08-06T01:31:50;4.77;;;2.57;;
44328;SDS011;30039;51.462;6.892;2023-08-06T01:34:36;2.67;;;1.85;;
44328;SDS011;30039;51.462;6.892;2023-08-06T01:37:23;2.78;;;2.05;;
44328;SDS011;30039;51.462;6.892;2023-08-06T01:40:12;5.60;;;2.10;;
44328;SDS011;30039;51.462;6.892;2023-08-06T01:42:57;4.35;;;2.20;;
44328;SDS011;30039;51.462;6.892;2023-08-06T01:45:43;3.47;;;1.80;;
44328;SDS011;30039;51.462;6.892;2023-08-06T01:48:29;3.25;;;2.10;;
44328;SDS011;30039;51.462;6.892;2023-08-06T01:51:14;8.15;;;1.88;;
44328;SDS011;30039;51.462;6.892;2023-08-06T01:54:00;6.60;;;1.98;;
44328;SDS011;30039;51.462;6.892;2023-08-06T01:56:45;5.07;;;2.20;;
44328;SDS011;30039;51.462;6.892;2023-08-06T01:59:31;3.72;;;2.13;;
44328;SDS011;30039;51.462;6.892;2023-08-06T02:02:16;3.40;;;2.20;;
44328;SDS011;30039;51.462;6.892;2023-08-06T02:05:02;2.65;;;2.00;;
44328;SDS011;30039;51.462;6.892;2023-08-06T02:07:48;4.85;;;2.30;;
44328;SDS011;30039;51.462;6.892;2023-08-06T02:10:33;4.03;;;2.13;;
44328;SDS011;30039;51.462;6.892;2023-08-06T02:13:19;2.80;;;1.52;;
44328;SDS011;30039;51.462;6.892;2023-08-06T02:16:06;2.70;;;1.85;;
44328;SDS011;30039;51.462;6.892;2023-08-06T02:18:52;3.13;;;1.95;;
44328;SDS011;30039;51.462;6.892;2023-08-06T02:21:38;3.13;;;2.00;;
44328;SDS011;30039;51.462;6.892;2023-08-06T02:24:23;3.63;;;1.90;;
44328;SDS011;30039;51.462;6.892;2023-08-06T02:27:09;3.35;;;1.90;;
44328;SDS011;30039;51.462;6.892;2023-08-06T02:29:54;3.40;;;2.10;;
44328;SDS011;30039;51.462;6.892;2023-08-06T02:32:40;4.88;;;2.03;;
44328;SDS011;30039;51.462;6.892;2023-08-06T02:35:25;2.33;;;1.67;;
44328;SDS011;30039;51.462;6.892;2023-08-06T02:38:11;3.65;;;1.85;;
44328;SDS011;30039;51.462;6.892;2023-08-06T02:40:57;3.08;;;1.80;;
44328;SDS011;30039;51.462;6.892;2023-08-06T02:43:42;5.00;;;2.08;;
44328;SDS011;30039;51.462;6.892;2023-08-06T02:46:28;4.72;;;2.10;;
44328;SDS011;30039;51.462;6.892;2023-08-06T02:49:13;3.60;;;1.95;;
44328;SDS011;30039;51.462;6.892;2023-08-06T02:51:59;3.75;;;1.90;;
44328;SDS011;30039;51.462;6.892;2023-08-06T02:54:45;3.42;;;1.80;;
44328;SDS011;30039;51.462;6.892;2023-08-06T02:57:30;3.30;;;1.95;;
44328;SDS011;30039;51.462;6.892;2023-08-06T03:00:16;3.95;;;1.70;;
44328;SDS011;30039;51.462;6.892;2023-08-06T03:03:01;2.63;;;1.77;;
44328;SDS011;30039;51.462;6.892;2023-08-06T03:05:54;4.72;;;1.95;;
44328;SDS011;30039;51.462;6.892;2023-08-06T03:08:39;2.93;;;1.83;;
44328;SDS011;30039;51.462;6.892;2023-08-06T03:11:25;3.13;;;1.90;;
44328;SDS011;30039;51.462;6.892;2023-08-06T03:14:10;2.83;;;1.73;;
44328;SDS011;30039;51.462;6.892;2023-08-06T03:16:56;4.95;;;1.92;;
44328;SDS011;30039;51.462;6.892;2023-08-06T03:19:42;3.30;;;2.00;;
44328;SDS011;30039;51.462;6.892;2023-08-06T03:22:27;2.65;;;1.90;;
44328;SDS011;30039;51.462;6.892;2023-08-06T03:25:13;3.35;;;1.90;;
44328;SDS011;30039;51.462;6.892;2023-08-06T03:27:58;4.38;;;2.50;;
44328;SDS011;30039;51.462;6.892;2023-08-06T03:30:45;2.60;;;1.90;;
44328;SDS011;30039;51.462;6.892;2023-08-06T03:33:30;3.63;;;1.70;;
44328;SDS011;30039;51.462;6.892;2023-08-06T03:36:16;3.35;;;1.92;;
44328;SDS011;30039;51.462;6.892;2023-08-06T03:39:02;2.50;;;1.60;;
44328;SDS011;30039;51.462;6.892;2023-08-06T03:41:48;2.53;;;1.58;;
44328;SDS011;30039;51.462;6.892;2023-08-06T03:44:33;3.45;;;2.13;;
44328;SDS011;30039;51.462;6.892;2023-08-06T03:47:19;2.72;;;1.95;;
44328;SDS011;30039;51.462;6.892;2023-08-06T03:50:05;4.18;;;2.58;;
44328;SDS011;30039;51.462;6.892;2023-08-06T03:52:51;4.45;;;1.90;;
44328;SDS011;30039;51.462;6.892;2023-08-06T03:55:36;3.35;;;1.90;;
44328;SDS011;30039;51.462;6.892;2023-08-06T03:58:22;4.40;;;2.08;;
44328;SDS011;30039;51.462;6.892;2023-08-06T04:01:07;3.22;;;2.05;;
44328;SDS011;30039;51.462;6.892;2023-08-06T04:03:53;2.67;;;1.75;;
44328;SDS011;30039;51.462;6.892;2023-08-06T04:06:39;3.58;;;2.00;;
44328;SDS011;30039;51.462;6.892;2023-08-06T04:09:28;3.97;;;2.00;;
44328;SDS011;30039;51.462;6.892;2023-08-06T04:12:13;4.47;;;1.67;;
44328;SDS011;30039;51.462;6.892;2023-08-06T04:15:00;2.70;;;1.98;;
44328;SDS011;30039;51.462;6.892;2023-08-06T04:17:46;3.88;;;2.28;;
44328;SDS011;30039;51.462;6.892;2023-08-06T04:20:31;3.95;;;2.15;;
44328;SDS011;30039;51.462;6.892;2023-08-06T04:23:17;3.67;;;2.10;;
44328;SDS011;30039;51.462;6.892;2023-08-06T04:26:02;3.17;;;1.90;;
44328;SDS011;30039;51.462;6.892;2023-08-06T04:28:48;2.78;;;1.80;;
44328;SDS011;30039;51.462;6.892;2023-08-06T04:31:34;5.72;;;2.42;;
44328;SDS011;30039;51.462;6.892;2023-08-06T04:34:19;3.15;;;2.13;;
44328;SDS011;30039;51.462;6.892;2023-08-06T04:37:05;5.63;;;2.55;;
44328;SDS011;30039;51.462;6.892;2023-08-06T04:39:54;4.55;;;2.10;;
44328;SDS011;30039;51.462;6.892;2023-08-06T04:42:39;2.47;;;2.08;;
44328;SDS011;30039;51.462;6.892;2023-08-06T04:45:25;4.25;;;1.80;;
44328;SDS011;30039;51.462;6.892;2023-08-06T04:48:10;3.92;;;2.05;;
44328;SDS011;30039;51.462;6.892;2023-08-06T04:50:56;3.75;;;2.10;;
44328;SDS011;30039;51.462;6.892;2023-08-06T04:53:42;3.45;;;2.25;;
44328;SDS011;30039;51.462;6.892;2023-08-06T04:56:27;4.32;;;2.03;;
44328;SDS011;30039;51.462;6.892;2023-08-06T04:59:13;3.60;;;2.17;;
44328;SDS011;30039;51.462;6.892;2023-08-06T05:01:58;5.32;;;2.28;;
44328;SDS011;30039;51.462;6.892;2023-08-06T05:04:44;5.22;;;2.33;;
44328;SDS011;30039;51.462;6.892;2023-08-06T05:07:29;3.42;;;2.00;;
44328;SDS011;30039;51.462;6.892;2023-08-06T05:10:15;3.72;;;1.83;;
44328;SDS011;30039;51.462;6.892;2023-08-06T05:13:01;3.20;;;1.80;;
44328;SDS011;30039;51.462;6.892;2023-08-06T05:15:46;3.75;;;1.70;;
44328;SDS011;30039;51.462;6.892;2023-08-06T05:18:32;10.50;;;2.25;;
44328;SDS011;30039;51.462;6.892;2023-08-06T05:21:19;3.55;;;2.22;;
44328;SDS011;30039;51.462;6.892;2023-08-06T05:24:05;4.13;;;2.17;;
44328;SDS011;30039;51.462;6.892;2023-08-06T05:26:50;5.90;;;2.00;;
44328;SDS011;30039;51.462;6.892;2023-08-06T05:29:39;2.63;;;1.85;;
44328;SDS011;30039;51.462;6.892;2023-08-06T05:32:25;4.13;;;2.13;;
44328;SDS011;30039;51.462;6.892;2023-08-06T05:35:10;4.75;;;2.00;;
44328;SDS011;30039;51.462;6.892;2023-08-06T05:37:56;3.03;;;2.00;;
44328;SDS011;30039;51.462;6.892;2023-08-06T05:40:41;4.95;;;2.15;;
44328;SDS011;30039;51.462;6.892;2023-08-06T05:43:27;3.70;;;2.03;;
44328;SDS011;30039;51.462;6.892;2023-08-06T05:46:13;3.22;;;2.00;;
44328;SDS011;30039;51.462;6.892;2023-08-06T05:48:58;3.33;;;2.20;;
44328;SDS011;30039;51.462;6.892;2023-08-06T05:51:44;3.17;;;2.30;;
44328;SDS011;30039;51.462;6.892;2023-08-06T05:54:29;4.63;;;2.50;;
44328;SDS011;30039;51.462;6.892;2023-08-06T05:57:15;4.32;;;2.20;;
44328;SDS011;30039;51.462;6.892;2023-08-06T06:00:02;4.07;;;2.40;;
44328;SDS011;30039;51.462;6.892;2023-08-06T06:02:48;2.83;;;1.98;;
44328;SDS011;30039;51.462;6.892;2023-08-06T06:05:33;3.60;;;2.30;;
44328;SDS011;30039;51.462;6.892;2023-08-06T06:08:19;4.75;;;2.30;;
44328;SDS011;30039;51.462;6.892;2023-08-06T06:11:05;5.70;;;2.30;;
44328;SDS011;30039;51.462;6.892;2023-08-06T06:13:51;6.40;;;2.28;;
44328;SDS011;30039;51.462;6.892;2023-08-06T06:16:36;4.38;;;2.25;;
44328;SDS011;30039;51.462;6.892;2023-08-06T06:19:22;4.03;;;2.00;;
44328;SDS011;30039;51.462;6.892;2023-08-06T06:22:07;4.30;;;2.00;;
44328;SDS011;30039;51.462;6.892;2023-08-06T06:24:53;3.67;;;1.65;;
44328;SDS011;30039;51.462;6.892;2023-08-06T06:27:39;4.00;;;1.70;;
44328;SDS011;30039;51.462;6.892;2023-08-06T06:30:24;4.45;;;2.03;;
44328;SDS011;30039;51.462;6.892;2023-08-06T06:33:10;3.67;;;1.77;;
44328;SDS011;30039;51.462;6.892;2023-08-06T06:35:55;5.05;;;2.03;;
44328;SDS011;30039;51.462;6.892;2023-08-06T06:38:41;4.13;;;2.03;;
44328;SDS011;30039;51.462;6.892;2023-08-06T06:41:27;3.20;;;1.65;;
44328;SDS011;30039;51.462;6.892;2023-08-06T06:44:14;3.67;;;1.80;;
44328;SDS011;30039;51.462;6.892;2023-08-06T06:47:00;2.90;;;1.70;;
44328;SDS011;30039;51.462;6.892;2023-08-06T06:49:46;3.55;;;1.85;;
44328;SDS011;30039;51.462;6.892;2023-08-06T06:52:31;3.92;;;1.95;;
44328;SDS011;30039;51.462;6.892;2023-08-06T06:55:17;2.88;;;1.63;;
44328;SDS011;30039;51.462;6.892;2023-08-06T06:58:02;3.78;;;1.55;;
44328;SDS011;30039;51.462;6.892;2023-08-06T07:00:48;3.63;;;1.67;;
44328;SDS011;30039;51.462;6.892;2023-08-06T07:03:34;3.00;;;1.80;;
44328;SDS011;30039;51.462;6.892;2023-08-06T07:06:19;2.60;;;1.58;;
44328;SDS011;30039;51.462;6.892;2023-08-06T07:09:05;5.03;;;1.80;;
44328;SDS011;30039;51.462;6.892;2023-08-06T07:11:51;3.53;;;1.50;;
44328;SDS011;30039;51.462;6.892;2023-08-06T07:14:37;5.15;;;1.70;;
44328;SDS011;30039;51.462;6.892;2023-08-06T07:17:24;2.28;;;1.60;;
44328;SDS011;30039;51.462;6.892;2023-08-06T07:20:09;3.80;;;1.80;;
44328;SDS011;30039;51.462;6.892;2023-08-06T07:22:55;3.30;;;1.83;;
44328;SDS011;30039;51.462;6.892;2023-08-06T07:25:41;4.57;;;1.80;;
44328;SDS011;30039;51.462;6.892;2023-08-06T07:28:26;3.35;;;1.60;;
44328;SDS011;30039;51.462;6.892;2023-08-06T07:31:12;3.47;;;1.60;;
44328;SDS011;30039;51.462;6.892;2023-08-06T07:33:58;4.10;;;1.70;;
44328;SDS011;30039;51.462;6.892;2023-08-06T07:36:46;2.45;;;1.52;;
44328;SDS011;30039;51.462;6.892;2023-08-06T07:39:32;3.30;;;1.50;;
44328;SDS011;30039;51.462;6.892;2023-08-06T07:42:17;1.88;;;1.30;;
44328;SDS011;30039;51.462;6.892;2023-08-06T07:45:06;9.35;;;1.40;;
44328;SDS011;30039;51.462;6.892;2023-08-06T07:47:54;2.58;;;1.63;;
44328;SDS011;30039;51.462;6.892;2023-08-06T07:50:39;4.15;;;1.65;;
44328;SDS011;30039;51.462;6.892;2023-08-06T07:53:25;5.47;;;1.52;;
44328;SDS011;30039;51.462;6.892;2023-08-06T07:56:12;3.97;;;1.48;;
44328;SDS011;30039;51.462;6.892;2023-08-06T07:58:58;2.67;;;1.60;;
44328;SDS011;30039;51.462;6.892;2023-08-06T08:01:43;2.72;;;1.70;;
44328;SDS011;30039;51.462;6.892;2023-08-06T08:04:29;3.97;;;1.83;;
44328;SDS011;30039;51.462;6.892;2023-08-06T08:07:14;3.38;;;1.50;;
44328;SDS011;30039;51.462;6.892;2023-08-06T08:10:00;1.90;;;1.30;;
44328;SDS011;30039;51.462;6.892;2023-08-06T08:12:45;2.53;;;1.30;;
44328;SDS011;30039;51.462;6.892;2023-08-06T08:15:33;2.88;;;1.45;;
44328;SDS011;30039;51.462;6.892;2023-08-06T08:18:19;1.92;;;1.13;;
44328;SDS011;30039;51.462;6.892;2023-08-06T08:21:05;3.45;;;1.30;;
44328;SDS011;30039;51.462;6.892;2023-08-06T08:23:50;3.10;;;1.52;;
44328;SDS011;30039;51.462;6.892;2023-08-06T08:26:36;1.92;;;1.38;;
44328;SDS011;30039;51.462;6.892;2023-08-06T08:29:22;2.60;;;1.45;;
44328;SDS011;30039;51.462;6.892;2023-08-06T08:32:07;2.80;;;1.40;;
44328;SDS011;30039;51.462;6.892;2023-08-06T08:34:53;3.35;;;1.60;;
44328;SDS011;30039;51.462;6.892;2023-08-06T08:37:38;2.10;;;1.13;;
44328;SDS011;30039;51.462;6.892;2023-08-06T08:40:26;3.83;;;1.40;;
44328;SDS011;30039;51.462;6.892;2023-08-06T08:43:14;2.97;;;1.40;;
44328;SDS011;30039;51.462;6.892;2023-08-06T08:46:03;4.03;;;1.67;;
44328;SDS011;30039;51.462;6.892;2023-08-06T08:48:49;3.67;;;1.50;;
44328;SDS011;30039;51.462;6.892;2023-08-06T08:51:35;3.47;;;1.60;;
44328;SDS011;30039;51.462;6.892;2023-08-06T08:54:21;3.67;;;1.65;;
44328;SDS011;30039;51.462;6.892;2023-08-06T08:57:08;2.65;;;1.58;;
44328;SDS011;30039;51.462;6.892;2023-08-06T08:59:54;3.03;;;2.13;;
44328;SDS011;30039;51.462;6.892;2023-08-06T09:02:39;4.22;;;2.22;;
44328;SDS011;30039;51.462;6.892;2023-08-06T09:05:27;2.88;;;2.08;;
44328;SDS011;30039;51.462;6.892;2023-08-06T09:08:15;4.47;;;2.40;;
44328;SDS011;30039;51.462;6.892;2023-08-06T09:11:03;3.72;;;2.70;;
44328;SDS011;30039;51.462;6.892;2023-08-06T09:13:49;4.45;;;3.30;;
44328;SDS011;30039;51.462;6.892;2023-08-06T09:16:35;7.07;;;4.05;;
44328;SDS011;30039;51.462;6.892;2023-08-06T09:19:21;6.53;;;3.53;;
44328;SDS011;30039;51.462;6.892;2023-08-06T09:22:07;7.40;;;3.70;;
44328;SDS011;30039;51.462;6.892;2023-08-06T09:24:58;6.15;;;3.55;;
44328;SDS011;30039;51.462;6.892;2023-08-06T09:27:45;6.22;;;3.50;;
44328;SDS011;30039;51.462;6.892;2023-08-06T09:33:17;8.13;;;3.90;;
44328;SDS011;30039;51.462;6.892;2023-08-06T09:36:12;7.80;;;3.35;;
44328;SDS011;30039;51.462;6.892;2023-08-06T09:38:58;6.65;;;3.20;;
44328;SDS011;30039;51.462;6.892;2023-08-06T09:41:43;3.78;;;2.72;;
44328;SDS011;30039;51.462;6.892;2023-08-06T09:44:30;6.13;;;2.70;;
44328;SDS011;30039;51.462;6.892;2023-08-06T09:47:16;6.90;;;2.50;;
44328;SDS011;30039;51.462;6.892;2023-08-06T09:50:03;4.38;;;2.78;;
44328;SDS011;30039;51.462;6.892;2023-08-06T09:52:52;5.90;;;2.97;;
44328;SDS011;30039;51.462;6.892;2023-08-06T09:55:38;4.78;;;3.40;;
44328;SDS011;30039;51.462;6.892;2023-08-06T09:58:23;6.30;;;3.17;;
44328;SDS011;30039;51.462;6.892;2023-08-06T10:01:09;6.30;;;3.17;;
44328;SDS011;30039;51.462;6.892;2023-08-06T10:03:56;5.03;;;3.30;;
44328;SDS011;30039;51.462;6.892;2023-08-06T10:06:43;3.92;;;2.75;;
44328;SDS011;30039;51.462;6.892;2023-08-06T10:09:31;5.43;;;2.72;;
44328;SDS011;30039;51.462;6.892;2023-08-06T10:12:17;3.53;;;2.63;;
44328;SDS011;30039;51.462;6.892;2023-08-06T10:15:06;4.82;;;3.22;;
44328;SDS011;30039;51.462;6.892;2023-08-06T10:17:55;3.35;;;2.38;;
44328;SDS011;30039;51.462;6.892;2023-08-06T10:20:41;4.35;;;2.78;;
44328;SDS011;30039;51.462;6.892;2023-08-06T10:23:36;4.22;;;2.92;;
44328;SDS011;30039;51.462;6.892;2023-08-06T10:26:27;5.22;;;2.83;;
44328;SDS011;30039;51.462;6.892;2023-08-06T10:35:03;9.88;;;3.65;;
44328;SDS011;30039;51.462;6.892;2023-08-06T10:37:49;3.53;;;3.13;;
44328;SDS011;30039;51.462;6.892;2023-08-06T10:40:36;7.00;;;3.20;;
44328;SDS011;30039;51.462;6.892;2023-08-06T10:46:25;5.22;;;3.20;;
44328;SDS011;30039;51.462;6.892;2023-08-06T10:49:11;4.53;;;3.15;;
44328;SDS011;30039;51.462;6.892;2023-08-06T10:51:59;6.85;;;3.33;;
44328;SDS011;30039;51.462;6.892;2023-08-06T10:54:44;4.38;;;2.90;;
44328;SDS011;30039;51.462;6.892;2023-08-06T10:57:31;5.05;;;4.55;;
44328;SDS011;30039;51.462;6.892;2023-08-06T11:00:17;7.53;;;4.80;;
44328;SDS011;30039;51.462;6.892;2023-08-06T11:03:02;7.30;;;5.22;;
44328;SDS011;30039;51.462;6.892;2023-08-06T11:05:49;5.35;;;4.40;;
44328;SDS011;30039;51.462;6.892;2023-08-06T11:08:35;7.60;;;4.53;;
44328;SDS011;30039;51.462;6.892;2023-08-06T11:11:22;7.20;;;4.78;;
44328;SDS011;30039;51.462;6.892;2023-08-06T11:14:14;7.07;;;4.57;;
44328;SDS011;30039;51.462;6.892;2023-08-06T11:17:00;4.28;;;2.90;;
44328;SDS011;30039;51.462;6.892;2023-08-06T11:19:45;2.95;;;1.70;;
44328;SDS011;30039;51.462;6.892;2023-08-06T11:22:31;1.58;;;1.25;;
44328;SDS011;30039;51.462;6.892;2023-08-06T11:25:19;3.10;;;1.17;;
44328;SDS011;30039;51.462;6.892;2023-08-06T11:28:05;4.18;;;1.38;;
44328;SDS011;30039;51.462;6.892;2023-08-06T11:30:51;2.58;;;1.00;;
44328;SDS011;30039;51.462;6.892;2023-08-06T11:33:37;2.58;;;1.10;;
44328;SDS011;30039;51.462;6.892;2023-08-06T11:36:32;1.98;;;1.10;;
44328;SDS011;30039;51.462;6.892;2023-08-06T11:39:18;1.35;;;1.00;;
44328;SDS011;30039;51.462;6.892;2023-08-06T11:42:04;1.42;;;1.30;;
44328;SDS011;30039;51.462;6.892;2023-08-06T11:44:51;2.88;;;1.35;;
44328;SDS011;30039;51.462;6.892;2023-08-06T11:47:39;2.63;;;1.10;;
44328;SDS011;30039;51.462;6.892;2023-08-06T11:50:28;2.17;;;1.42;;
44328;SDS011;30039;51.462;6.892;2023-08-06T11:53:16;3.20;;;1.70;;
44328;SDS011;30039;51.462;6.892;2023-08-06T11:56:01;2.58;;;1.48;;
44328;SDS011;30039;51.462;6.892;2023-08-06T11:58:47;2.03;;;1.33;;
44328;SDS011;30039;51.462;6.892;2023-08-06T12:01:33;2.50;;;1.33;;
44328;SDS011;30039;51.462;6.892;2023-08-06T12:04:19;2.17;;;1.13;;
44328;SDS011;30039;51.462;6.892;2023-08-06T12:07:05;1.38;;;0.93;;
44328;SDS011;30039;51.462;6.892;2023-08-06T12:09:54;1.38;;;0.93;;
44328;SDS011;30039;51.462;6.892;2023-08-06T12:12:40;1.67;;;0.82;;
44328;SDS011;30039;51.462;6.892;2023-08-06T12:15:25;1.73;;;1.02;;
44328;SDS011;30039;51.462;6.892;2023-08-06T12:18:11;1.80;;;1.08;;
44328;SDS011;30039;51.462;6.892;2023-08-06T12:20:56;2.40;;;1.20;;
44328;SDS011;30039;51.462;6.892;2023-08-06T12:23:43;1.38;;;1.05;;
44328;SDS011;30039;51.462;6.892;2023-08-06T12:26:29;1.92;;;1.13;;
44328;SDS011;30039;51.462;6.892;2023-08-06T12:29:15;2.67;;;1.15;;
44328;SDS011;30039;51.462;6.892;2023-08-06T12:32:00;2.70;;;1.50;;
44328;SDS011;30039;51.462;6.892;2023-08-06T12:34:46;3.42;;;1.50;;
44328;SDS011;30039;51.462;6.892;2023-08-06T12:37:32;2.03;;;1.45;;
44328;SDS011;30039;51.462;6.892;2023-08-06T12:40:17;2.33;;;1.50;;
44328;SDS011;30039;51.462;6.892;2023-08-06T12:43:03;2.67;;;1.33;;
44328;SDS011;30039;51.462;6.892;2023-08-06T12:45:48;2.53;;;1.48;;
44328;SDS011;30039;51.462;6.892;2023-08-06T12:48:34;2.13;;;1.52;;
44328;SDS011;30039;51.462;6.892;2023-08-06T12:51:20;2.80;;;1.70;;
44328;SDS011;30039;51.462;6.892;2023-08-06T12:54:05;4.10;;;1.90;;
44328;SDS011;30039;51.462;6.892;2023-08-06T12:56:54;4.32;;;2.05;;
44328;SDS011;30039;51.462;6.892;2023-08-06T12:59:40;3.35;;;2.40;;
44328;SDS011;30039;51.462;6.892;2023-08-06T13:02:25;2.58;;;1.60;;
44328;SDS011;30039;51.462;6.892;2023-08-06T13:05:15;3.53;;;1.92;;
44328;SDS011;30039;51.462;6.892;2023-08-06T13:08:00;1.98;;;1.52;;
44328;SDS011;30039;51.462;6.892;2023-08-06T13:10:46;2.22;;;1.70;;
44328;SDS011;30039;51.462;6.892;2023-08-06T13:13:31;2.90;;;1.52;;
44328;SDS011;30039;51.462;6.892;2023-08-06T13:16:17;2.03;;;1.65;;
44328;SDS011;30039;51.462;6.892;2023-08-06T13:19:03;3.65;;;1.90;;
44328;SDS011;30039;51.462;6.892;2023-08-06T13:24:37;2.55;;;1.58;;
44328;SDS011;30039;51.462;6.892;2023-08-06T13:27:23;2.63;;;1.35;;
44328;SDS011;30039;51.462;6.892;2023-08-06T13:30:08;2.17;;;1.50;;
44328;SDS011;30039;51.462;6.892;2023-08-06T13:32:54;2.33;;;1.40;;
44328;SDS011;30039;51.462;6.892;2023-08-06T13:35:41;2.70;;;1.70;;
44328;SDS011;30039;51.462;6.892;2023-08-06T13:38:27;2.92;;;1.80;;
44328;SDS011;30039;51.462;6.892;2023-08-06T13:41:13;3.22;;;1.80;;
44328;SDS011;30039;51.462;6.892;2023-08-06T13:43:58;2.58;;;1.80;;
44328;SDS011;30039;51.462;6.892;2023-08-06T13:46:44;2.78;;;1.80;;
44328;SDS011;30039;51.462;6.892;2023-08-06T13:49:29;3.25;;;1.70;;
44328;SDS011;30039;51.462;6.892;2023-08-06T13:52:15;3.42;;;2.05;;
44328;SDS011;30039;51.462;6.892;2023-08-06T13:55:04;4.82;;;2.60;;
44328;SDS011;30039;51.462;6.892;2023-08-06T13:57:50;6.10;;;2.58;;
44328;SDS011;30039;51.462;6.892;2023-08-06T14:00:36;5.30;;;2.50;;
44328;SDS011;30039;51.462;6.892;2023-08-06T14:03:22;4.28;;;2.05;;
44328;SDS011;30039;51.462;6.892;2023-08-06T14:06:07;3.58;;;2.00;;
44328;SDS011;30039;51.462;6.892;2023-08-06T14:08:53;3.20;;;2.05;;
44328;SDS011;30039;51.462;6.892;2023-08-06T14:11:38;5.65;;;2.25;;
44328;SDS011;30039;51.462;6.892;2023-08-06T14:14:24;4.13;;;2.67;;
44328;SDS011;30039;51.462;6.892;2023-08-06T14:17:12;4.10;;;2.30;;
44328;SDS011;30039;51.462;6.892;2023-08-06T14:19:57;3.13;;;2.00;;
44328;SDS011;30039;51.462;6.892;2023-08-06T14:22:43;4.93;;;2.30;;
44328;SDS011;30039;51.462;6.892;2023-08-06T14:25:29;4.40;;;2.22;;
44328;SDS011;30039;51.462;6.892;2023-08-06T14:28:14;3.17;;;2.05;;
44328;SDS011;30039;51.462;6.892;2023-08-06T14:31:00;3.67;;;2.05;;
44328;SDS011;30039;51.462;6.892;2023-08-06T14:33:46;3.90;;;2.10;;
44328;SDS011;30039;51.462;6.892;2023-08-06T14:36:32;3.55;;;2.05;;
44328;SDS011;30039;51.462;6.892;2023-08-06T14:39:17;2.90;;;1.75;;
44328;SDS011;30039;51.462;6.892;2023-08-06T14:42:04;3.78;;;1.90;;
44328;SDS011;30039;51.462;6.892;2023-08-06T14:44:49;3.33;;;1.80;;
44328;SDS011;30039;51.462;6.892;2023-08-06T14:47:35;5.03;;;1.90;;
44328;SDS011;30039;51.462;6.892;2023-08-06T14:50:21;3.70;;;2.10;;
44328;SDS011;30039;51.462;6.892;2023-08-06T14:53:06;6.88;;;2.40;;
44328;SDS011;30039;51.462;6.892;2023-08-06T14:55:53;4.75;;;2.05;;
44328;SDS011;30039;51.462;6.892;2023-08-06T14:58:39;5.07;;;1.98;;
44328;SDS011;30039;51.462;6.892;2023-08-06T15:01:25;3.88;;;1.90;;
44328;SDS011;30039;51.462;6.892;2023-08-06T15:04:10;4.97;;;1.80;;
44328;SDS011;30039;51.462;6.892;2023-08-06T15:06:56;4.20;;;2.00;;
44328;SDS011;30039;51.462;6.892;2023-08-06T15:09:41;4.78;;;2.10;;
44328;SDS011;30039;51.462;6.892;2023-08-06T15:12:27;4.25;;;1.75;;
44328;SDS011;30039;51.462;6.892;2023-08-06T15:15:13;3.60;;;1.60;;
44328;SDS011;30039;51.462;6.892;2023-08-06T15:17:58;4.10;;;1.90;;
44328;SDS011;30039;51.462;6.892;2023-08-06T15:20:44;4.55;;;2.00;;
44328;SDS011;30039;51.462;6.892;2023-08-06T15:23:29;2.22;;;1.58;;
44328;SDS011;30039;51.462;6.892;2023-08-06T15:26:15;4.32;;;1.73;;
44328;SDS011;30039;51.462;6.892;2023-08-06T15:29:01;3.45;;;1.95;;
44328;SDS011;30039;51.462;6.892;2023-08-06T15:31:46;2.67;;;1.60;;
44328;SDS011;30039;51.462;6.892;2023-08-06T15:34:32;3.80;;;2.00;;
44328;SDS011;30039;51.462;6.892;2023-08-06T15:37:18;3.25;;;1.58;;
44328;SDS011;30039;51.462;6.892;2023-08-06T15:40:04;4.82;;;1.98;;
44328;SDS011;30039;51.462;6.892;2023-08-06T15:42:50;3.58;;;2.05;;
44328;SDS011;30039;51.462;6.892;2023-08-06T15:45:36;3.13;;;1.58;;
44328;SDS011;30039;51.462;6.892;2023-08-06T15:48:21;3.00;;;1.85;;
44328;SDS011;30039;51.462;6.892;2023-08-06T15:51:07;4.30;;;1.90;;
44328;SDS011;30039;51.462;6.892;2023-08-06T15:53:52;4.00;;;1.83;;
44328;SDS011;30039;51.462;6.892;2023-08-06T15:56:38;2.90;;;1.90;;
44328;SDS011;30039;51.462;6.892;2023-08-06T15:59:28;3.70;;;1.73;;
44328;SDS011;30039;51.462;6.892;2023-08-06T16:02:14;3.05;;;1.77;;
44328;SDS011;30039;51.462;6.892;2023-08-06T16:05:00;2.88;;;1.52;;
44328;SDS011;30039;51.462;6.892;2023-08-06T16:07:48;3.05;;;1.65;;
44328;SDS011;30039;51.462;6.892;2023-08-06T16:10:34;2.60;;;1.40;;
44328;SDS011;30039;51.462;6.892;2023-08-06T16:13:20;2.53;;;1.40;;
44328;SDS011;30039;51.462;6.892;2023-08-06T16:16:05;1.85;;;1.23;;
44328;SDS011;30039;51.462;6.892;2023-08-06T16:18:51;3.35;;;1.50;;
44328;SDS011;30039;51.462;6.892;2023-08-06T16:21:37;2.28;;;1.35;;
44328;SDS011;30039;51.462;6.892;2023-08-06T16:24:22;3.13;;;1.45;;
44328;SDS011;30039;51.462;6.892;2023-08-06T16:27:08;2.90;;;1.40;;
44328;SDS011;30039;51.462;6.892;2023-08-06T16:29:54;5.22;;;1.92;;
44328;SDS011;30039;51.462;6.892;2023-08-06T16:32:39;2.50;;;1.67;;
44328;SDS011;30039;51.462;6.892;2023-08-06T16:35:26;3.30;;;1.70;;
44328;SDS011;30039;51.462;6.892;2023-08-06T16:38:12;3.35;;;1.45;;
44328;SDS011;30039;51.462;6.892;2023-08-06T16:40:58;3.22;;;1.60;;
44328;SDS011;30039;51.462;6.892;2023-08-06T16:43:44;2.78;;;1.67;;
44328;SDS011;30039;51.462;6.892;2023-08-06T16:46:30;3.38;;;1.70;;
44328;SDS011;30039;51.462;6.892;2023-08-06T16:49:16;2.40;;;1.70;;
44328;SDS011;30039;51.462;6.892;2023-08-06T16:52:02;3.10;;;2.08;;
44328;SDS011;30039;51.462;6.892;2023-08-06T16:54:48;3.22;;;1.42;;
44328;SDS011;30039;51.462;6.892;2023-08-06T16:57:34;5.07;;;1.48;;
44328;SDS011;30039;51.462;6.892;2023-08-06T17:00:20;3.15;;;1.75;;
44328;SDS011;30039;51.462;6.892;2023-08-06T17:03:05;3.53;;;1.45;;
44328;SDS011;30039;51.462;6.892;2023-08-06T17:05:51;4.00;;;1.90;;